PADE

Details ICAO PADE (DRG)
Name DEERING
Region USA (Alaska)
Timezone America/Nome (UTC-9.0)
Plans Departing 0
Arriving 1
Stats Elevation 21 ft / 6 m (AMSL)
Location 66.069149° -162.767028°
Runways 2
Magnetic Variation 11.403° E
Sunrise 2017-12-11 21:13:32 UTC / 2017-12-11 12:13:32 Local
Sunset 2017-12-12 00:18:26 UTC / 2017-12-11 15:18:26 Local
Advertisement - Login to hide

Runways

ID Width Length Bearing (true) Bearing (mag) Surface Threshold Offset Overrun Length
02 75 ft / 23 m 3,323 ft / 1,013 m 37.90° 26.50° Gravel 0 ft / 0 m 0 ft / 0 m
11 75 ft / 23 m 2,663 ft / 812 m 126.50° 115.10° Gravel 0 ft / 0 m 0 ft / 0 m
20 75 ft / 23 m 3,323 ft / 1,013 m 217.91° 206.51° Gravel 0 ft / 0 m 0 ft / 0 m
29 75 ft / 23 m 2,663 ft / 812 m 306.51° 295.11° Gravel 0 ft / 0 m 0 ft / 0 m

Map

Weather


0- 5 10 15 20 25 30 35+ Temperature / ° C

Clouds and Precipitation
Forecast for 2017-12-12 06:00 UTC. Updated an hour ago

Ground ~20,000 ft ~40,000 ft Winds

METAR

PADE 120553Z AUTO 26007KT 4SM -SN BR OVC013 M06/M08 A2943 RMK AO2 SNB28 SLP966 P0000 60000 I6002 T10611078 11056 21061 51013 TSNO $

TAF

Not found

Frequencies

Recorded 135.50 MHz ASOS
Approach 119.20 MHz ANCHORAGE CNTR
Unicom 122.90 MHz CTAF
Warning: Do not use this data for real-world aviation or navigation. No guarantee of current accuracy is given.